• Join FlightAware (Why Join?)
  • Login
  • US Flag 
11:45PM EDT


 

Airport Tracker/Info


-or-


 

Live Flight TrackerFlight Track Log ✈ N701AV ✈ 08-Jun-2014 ✈ KSTP - KSUA

Flight Track Log - Related Links

Times and Time Zones

All times are in EDT time to prevent confusion due to time zone crossing. See the N701AV flight status page for this flight to view local times or setup timezone preferences in your user account.

Time Position Orientation Groundspeed Altitude Reporting Facility
EDT Latitude Longitude Course Direction KTS MPH feet Rate Location/Type
07:55AM 44.9167 -93.0333 145° Southeast 155 178 1,300  Level Minneapolis TRACON
07:56AM 44.8833 -93.0000 145° Southeast 163 188 2,700 1,320 Climbing Minneapolis TRACON
07:57AM 44.8350 -92.9603 150° Southeast 170 196 4,200 1,500 Climbing Minneapolis Center
07:58AM 44.8011 -92.9169 138° Southeast 168 193 5,900 1,560 Climbing Minneapolis Center
07:59AM 44.7642 -92.8794 144° Southeast 166 191 7,400 1,500 Climbing Minneapolis Center
08:00AM 44.7272 -92.8394 142° Southeast 166 191 9,000 1,560 Climbing Minneapolis Center
08:01AM 44.6861 -92.8014 147° Southeast 176 203 10,600 1,440 Climbing Minneapolis Center
08:02AM 44.6456 -92.7508 138° Southeast 185 213 12,000 1,380 Climbing Minneapolis Center
08:03AM 44.6042 -92.7131 147° Southeast 185 213 13,500 1,380 Climbing Minneapolis Center
08:04AM 44.5608 -92.6681 143° Southeast 189 217 14,800 1,260 Climbing Minneapolis Center
08:05AM 44.5153 -92.6222 144° Southeast 196 226 16,100 1,320 Climbing Minneapolis Center
08:06AM 44.4686 -92.5744 144° Southeast 204 235 17,500 1,200 Climbing Minneapolis Center
08:07AM 44.4211 -92.5267 144° Southeast 207 238 18,600 1,140 Climbing Minneapolis Center
08:08AM 44.3694 -92.4825 149° Southeast 213 245 19,800 1,140 Climbing Minneapolis Center
08:09AM 44.3186 -92.4342 146° Southeast 217 250 21,000 1,200 Climbing Minneapolis Center
08:10AM 44.2664 -92.3864 147° Southeast 221 254 22,300 1,260 Climbing Minneapolis Center
08:11AM 44.2017 -92.3294 148° Southeast 226 260 23,600 1,140 Climbing Minneapolis Center
08:12AM 44.1456 -92.2781 147° Southeast 239 275 24,700 1,020 Climbing Minneapolis Center
08:13AM 44.0903 -92.2275 147° Southeast 239 275 25,700 900 Climbing Minneapolis Center
08:14AM 44.0336 -92.1742 146° Southeast 243 280 26,600 600 Climbing Minneapolis Center
08:15AM 43.9739 -92.1219 148° Southeast 250 288 27,000 180 Climbing Minneapolis Center
08:16AM 43.9069 -92.0644 148° Southeast 279 321 27,000  Level Minneapolis Center
08:17AM 43.8369 -91.9992 146° Southeast 297 342 27,000  Level Minneapolis Center
08:18AM 43.7681 -91.9369 147° Southeast 307 353 27,000  Level Minneapolis Center
08:19AM 43.7006 -91.8744 146° Southeast 298 343 27,000  Level Minneapolis Center
08:20AM 43.6342 -91.8139 147° Southeast 291 335 27,000  Level Minneapolis Center
08:21AM 43.5544 -91.7433 147° Southeast 289 333 27,000  Level Minneapolis Center
08:22AM 43.4886 -91.6856 148° Southeast 286 329 27,000  Level Minneapolis Center
08:24AM 43.4228 -91.6278 147° Southeast 285 328 27,000  Level Minneapolis Center
08:25AM 43.3567 -91.5681 147° Southeast 284 327 27,000  Level Minneapolis Center
08:26AM 43.2903 -91.5111 148° Southeast 284 327 27,000  Level Minneapolis Center
08:27AM 43.2247 -91.4522 147° Southeast 284 327 27,000  Level Minneapolis Center
08:28AM 43.1583 -91.3950 148° Southeast 283 326 27,000  Level Minneapolis Center
08:29AM 43.0919 -91.3361 147° Southeast 283 326 27,000  Level Minneapolis Center
08:30AM 43.0239 -91.2775 148° Southeast 284 327 27,000  Level Minneapolis Center
08:31AM 42.9567 -91.2186 147° Southeast 284 327 27,000  Level Minneapolis Center
08:32AM 42.8897 -91.1606 148° Southeast 284 327 27,000  Level Minneapolis Center
08:33AM 42.8225 -91.1022 148° Southeast 284 327 27,000  Level Minneapolis Center
08:34AM 42.7414 -91.0333 148° Southeast 284 327 27,000  Level Minneapolis Center
08:35AM 42.6742 -90.9750 147° Southeast 285 328 27,000  Level Minneapolis Center
08:36AM 42.6067 -90.9167 148° Southeast 285 328 27,000  Level Minneapolis Center
08:37AM 42.5392 -90.8597 148° Southeast 285 328 27,000  Level Minneapolis Center
08:38AM 42.4719 -90.8025 148° Southeast 285 328 27,000  Level Minneapolis Center
08:39AM 42.3939 -90.7336 147° Southeast 286 329 27,000  Level Chicago Center
08:40AM 42.3281 -90.6764 147° Southeast 286 329 27,000  Level Chicago Center
08:41AM 42.2625 -90.6206 148° Southeast 281 323 27,000  Level Chicago Center
08:42AM 42.1978 -90.5650 148° Southeast 280 322 27,000  Level Chicago Center
08:43AM 42.1311 -90.5103 149° Southeast 280 322 27,000  Level Chicago Center
08:44AM 42.0644 -90.4561 149° Southeast 281 323 27,000  Level Chicago Center
08:45AM 41.9839 -90.3897 149° Southeast 283 326 27,000  Level Chicago Center
08:46AM 41.9175 -90.3319 147° Southeast 284 327 27,000  Level Chicago Center
08:47AM 41.8514 -90.2747 147° Southeast 284 327 27,000  Level Chicago Center
08:48AM 41.7894 -90.2236 148° Southeast 284 327 27,000  Level Chicago Center
08:49AM 41.7075 -90.1572 149° Southeast 284 327 27,000  Level Chicago Center
08:50AM 41.6392 -90.1006 148° Southeast 284 327 27,000  Level Chicago Center
08:51AM 41.5722 -90.0450 148° Southeast 285 328 27,000  Level Chicago Center
08:52AM 41.5058 -89.9889 148° Southeast 284 327 27,000  Level Chicago Center
08:53AM 41.4378 -89.9322 148° Southeast 284 327 27,000  Level Chicago Center
08:54AM 41.3697 -89.8781 149° Southeast 285 328 27,000  Level Chicago Center
08:55AM 41.3019 -89.8225 148° Southeast 285 328 27,000  Level Chicago Center
08:56AM 41.2347 -89.7669 148° Southeast 284 327 27,000  Level Chicago Center
08:57AM 41.1661 -89.7128 149° Southeast 285 328 27,000  Level Chicago Center
08:58AM 41.0844 -89.6447 148° Southeast 285 328 27,000  Level Chicago Center
08:59AM 41.0167 -89.5897 149° Southeast 285 328 27,000  Level Chicago Center
09:00AM 40.9478 -89.5353 149° Southeast 285 328 27,000  Level Chicago Center
09:01AM 40.8797 -89.4789 148° Southeast 286 329 27,000  Level Chicago Center
09:03AM 40.8119 -89.4236 148° Southeast 286 329 27,000  Level Chicago Center
09:04AM 40.7433 -89.3692 149° Southeast 286 329 27,000  Level Chicago Center
09:05AM 40.6761 -89.3147 148° Southeast 285 328 27,000  Level Chicago Center
09:06AM 40.6083 -89.2600 148° Southeast 285 328 27,000  Level Chicago Center
09:07AM 40.5411 -89.2075 149° Southeast 284 327 27,000  Level Chicago Center
09:08AM 40.4592 -89.1436 149° Southeast 284 327 27,000  Level Chicago Center
09:09AM 40.3906 -89.0881 148° Southeast 285 328 27,000  Level Chicago Center
09:10AM 40.3225 -89.0339 149° Southeast 285 328 27,000  Level Chicago Center
09:11AM 40.2544 -88.9803 149° Southeast 285 328 27,000  Level Chicago Center
09:12AM 40.1856 -88.9272 150° Southeast 285 328 27,000  Level Chicago Center
09:13AM 40.1172 -88.8739 149° Southeast 285 328 27,000  Level Chicago Center
09:14AM 40.0483 -88.8200 149° Southeast 286 329 27,000  Level Chicago Center
09:15AM 39.9797 -88.7656 149° Southeast 287 330 27,000  Level Chicago Center
09:16AM 39.8958 -88.7003 149° Southeast 289 333 27,000  Level Chicago Center
09:17AM 39.8272 -88.6464 149° Southeast 289 333 27,000  Level Chicago Center
09:18AM 39.7581 -88.5936 150° Southeast 289 333 27,000  Level Chicago Center
09:19AM 39.6894 -88.5394 149° Southeast 289 333 27,000  Level Chicago Center
09:20AM 39.6197 -88.4850 149° Southeast 289 333 27,000  Level Chicago Center
09:21AM 39.5492 -88.4322 150° Southeast 290 334 27,000  Level Chicago Center
09:22AM 39.4642 -88.3703 151° Southeast 289 333 27,000  Level Kansas City Center
09:23AM 39.3956 -88.3150 148° Southeast 289 333 27,000  Level Kansas City Center
09:24AM 39.3258 -88.2617 149° Southeast 289 333 27,000  Level Kansas City Center
09:25AM 39.2419 -88.1986 150° Southeast 289 333 27,000  Level Kansas City Center
09:26AM 39.1722 -88.1447 149° Southeast 289 333 27,000  Level Kansas City Center
09:27AM 39.1022 -88.0917 150° Southeast 290 334 27,000  Level Kansas City Center
09:28AM 39.0308 -88.0383 150° Southeast 291 335 27,000  Level Kansas City Center
09:29AM 38.9592 -87.9847 150° Southeast 293 337 27,000  Level Kansas City Center
09:30AM 38.8903 -87.9319 149° Southeast 293 337 27,000  Level Kansas City Center
09:31AM 38.8197 -87.8786 150° Southeast 292 336 27,000  Level Kansas City Center
09:33AM 38.7492 -87.8275 151° Southeast 292 336 27,000  Level Kansas City Center
09:34AM 38.6647 -87.7636 149° Southeast 292 336 27,000  Level Indianapolis Center
09:35AM 38.5953 -87.7128 150° Southeast 291 335 27,000  Level Indianapolis Center
09:36AM 38.5269 -87.6608 149° Southeast 290 334 27,000  Level Indianapolis Center
09:37AM 38.4578 -87.6103 150° Southeast 289 333 27,000  Level Indianapolis Center
09:38AM 38.3897 -87.5600 150° Southeast 289 333 27,000  Level Indianapolis Center
09:39AM 38.3214 -87.5100 150° Southeast 288 331 27,000  Level Indianapolis Center
09:40AM 38.2397 -87.4497 150° Southeast 286 329 27,000  Level Indianapolis Center
09:41AM 38.1733 -87.4003 150° Southeast 283 326 27,000  Level Indianapolis Center
09:43AM 38.0306 -87.2978 151° Southeast 282 325 27,000  Level Memphis Center
09:44AM 37.9725 -87.2522 148° Southeast 282 325 27,000  Level Indianapolis Center
09:45AM 37.9050 -87.2036 150° Southeast 281 323 27,000  Level Indianapolis Center
09:46AM 37.8231 -87.1444 150° Southeast 281 323 27,000  Level Indianapolis Center
09:47AM 37.7553 -87.0947 150° Southeast 281 323 27,000  Level Indianapolis Center
09:48AM 37.6878 -87.0467 151° Southeast 281 323 27,000  Level Indianapolis Center
09:49AM 37.6203 -86.9969 150° Southeast 281 323 27,000  Level Indianapolis Center
09:50AM 37.5528 -86.9478 150° Southeast 281 323 27,000  Level Indianapolis Center
09:51AM 37.4831 -86.8981 150° Southeast 281 323 27,000  Level Indianapolis Center
09:52AM 37.4150 -86.8492 150° Southeast 281 323 27,000  Level Indianapolis Center
09:53AM 37.3456 -86.8006 151° Southeast 281 323 27,000  Level Indianapolis Center
09:54AM 37.2661 -86.7439 150° Southeast 280 322 27,000  Level Indianapolis Center
09:55AM 37.1981 -86.6947 150° Southeast 280 322 27,000  Level Indianapolis Center
09:56AM 37.1300 -86.6447 150° Southeast 280 322 27,000  Level Indianapolis Center
09:57AM 37.0756 -86.5986 146° Southeast 280 322 27,000  Level Memphis Center
09:58AM 37.0089 -86.5439 147° Southeast 280 322 27,000  Level Memphis Center
09:59AM 36.9319 -86.4786 146° Southeast 280 322 27,100  Climbing Memphis Center
10:00AM 36.8656 -86.4256 147° Southeast 280 322 27,100 -60 Level Memphis Center
10:01AM 36.8000 -86.3700 146° Southeast 280 322 27,000 -60 Descending Memphis Center
10:02AM 36.7336 -86.3156 147° Southeast 280 322 27,000  Level Memphis Center
10:03AM 36.6664 -86.2597 146° Southeast 281 323 27,000  Level Memphis Center
10:04AM 36.5997 -86.2050 147° Southeast 281 323 27,000  Level Memphis Center
10:05AM 36.5325 -86.1497 147° Southeast 281 323 27,000  Level Memphis Center
10:06AM 36.4667 -86.0956 147° Southeast 281 323 27,000  Level Memphis Center
10:07AM 36.4003 -86.0411 147° Southeast 281 323 27,000  Level Memphis Center
10:09AM 36.3342 -85.9881 147° Southeast 281 323 27,000  Level Memphis Center
10:10AM 36.2675 -85.9331 146° Southeast 281 323 27,000  Level Memphis Center
10:11AM 36.2011 -85.8797 147° Southeast 281 323 27,000  Level Memphis Center
10:12AM 36.1322 -85.8250 147° Southeast 281 323 27,000  Level Memphis Center
10:13AM 36.0664 -85.7719 147° Southeast 281 323 27,000  Level Memphis Center
10:14AM 36.0003 -85.7197 147° Southeast 281 323 27,000  Level Memphis Center
10:15AM 35.9347 -85.6664 147° Southeast 282 325 27,000  Level Memphis Center
10:16AM 35.8561 -85.6050 148° Southeast 281 323 27,000  Level Memphis Center
10:17AM 35.7922 -85.5525 146° Southeast 281 323 27,000  Level Memphis Center
10:18AM 35.7278 -85.5008 147° Southeast 281 323 27,000  Level Memphis Center
10:19AM 35.6631 -85.4483 147° Southeast 280 322 27,000  Level Memphis Center
10:20AM 35.5972 -85.3969 148° Southeast 280 322 27,000  Level Memphis Center
10:21AM 35.5319 -85.3444 147° Southeast 280 322 27,000  Level Memphis Center
10:22AM 35.4544 -85.2833 147° Southeast 280 322 27,000  Level Memphis Center
10:23AM 35.3889 -85.2322 148° Southeast 280 322 27,000  Level Memphis Center
10:24AM 35.3244 -85.1825 148° Southeast 279 321 27,000  Level Memphis Center
10:25AM 35.2603 -85.1314 147° Southeast 277 319 27,000  Level Memphis Center
10:25AM 35.2214 -85.1014 148° Southeast 274 315 27,000  Level Atlanta Center
10:26AM 35.1592 -85.0525 147° Southeast 274 315 27,000  Level Atlanta Center
10:27AM 35.0947 -85.0033 148° Southeast 274 315 27,000  Level Atlanta Center
10:28AM 35.0306 -84.9519 147° Southeast 274 315 27,000  Level Atlanta Center
10:29AM 34.9661 -84.9031 148° Southeast 274 315 27,000  Level Atlanta Center
10:30AM 34.9019 -84.8517 147° Southeast 274 315 27,000  Level Atlanta Center
10:31AM 34.8375 -84.8031 148° Southeast 274 315 27,000  Level Atlanta Center
10:32AM 34.7731 -84.7519 147° Southeast 274 315 27,000  Level Atlanta Center
10:33AM 34.7086 -84.7033 148° Southeast 274 315 27,000  Level Atlanta Center
10:34AM 34.6464 -84.6522 146° Southeast 274 315 27,000  Level Atlanta Center
10:35AM 34.5819 -84.6039 148° Southeast 274 315 27,000  Level Atlanta Center
10:36AM 34.5175 -84.5531 147° Southeast 274 315 27,000  Level Atlanta Center
10:37AM 34.4528 -84.5022 147° Southeast 274 315 27,000  Level Atlanta Center
10:38AM 34.3883 -84.4542 148° Southeast 274 315 27,000  Level Atlanta Center
10:39AM 34.3239 -84.4036 147° Southeast 274 315 27,000  Level Atlanta Center
10:40AM 34.2633 -84.3556 147° Southeast 274 315 27,000  Level Atlanta Center
10:41AM 34.1989 -84.3075 148° Southeast 274 315 27,000  Level Atlanta Center
10:42AM 34.1342 -84.2597 149° Southeast 274 315 27,000  Level Atlanta Center
10:43AM 34.0758 -84.2194 150° Southeast 274 315 27,000  Level Atlanta Center
10:44AM 34.0069 -84.1617 145° Southeast 274 315 27,000  Level Atlanta Center
10:45AM 33.9425 -84.1139 148° Southeast 274 315 27,000  Level Atlanta Center
10:46AM 33.8797 -84.0664 148° Southeast 274 315 27,000  Level Atlanta Center
10:47AM 33.8150 -84.0189 149° Southeast 274 315 27,000  Level Atlanta Center
10:48AM 33.7586 -83.9764 148° Southeast 274 315 27,000  Level Atlanta Center
10:49AM 33.6961 -83.9289 148° Southeast 274 315 27,000  Level Atlanta Center
10:50AM 33.6292 -83.8792 148° Southeast 274 315 27,000  Level Atlanta Center
10:51AM 33.5644 -83.8319 149° Southeast 274 315 27,000  Level Atlanta Center
10:52AM 33.5017 -83.7847 148° Southeast 274 315 27,000  Level Atlanta Center
10:53AM 33.4369 -83.7350 147° Southeast 274 315 27,000  Level Atlanta Center
10:54AM 33.3722 -83.6881 149° Southeast 274 315 27,000  Level Atlanta Center
10:55AM 33.3072 -83.6386 148° Southeast 274 315 27,000  Level Atlanta Center
10:56AM 33.2383 -83.5942 152° Southeast 274 315 27,000  Level Atlanta Center
10:57AM 33.1733 -83.5425 146° Southeast 274 315 27,000  Level Atlanta Center
10:58AM 33.1106 -83.4933 147° Southeast 274 315 27,000  Level Atlanta Center
10:59AM 33.0433 -83.4442 148° Southeast 274 315 27,000  Level Atlanta Center
11:00AM 32.9806 -83.3975 148° Southeast 274 315 27,000  Level Atlanta Center
11:01AM 32.9136 -83.3508 150° Southeast 274 315 27,000  Level Atlanta Center
11:02AM 32.8506 -83.3069 150° Southeast 269 310 27,000  Level Atlanta Center
11:03AM 32.7836 -83.2556 147° Southeast 274 315 27,000  Level Atlanta Center
11:04AM 32.7186 -83.2067 148° Southeast 274 315 27,000 60 Level Atlanta Center
11:05AM 32.6514 -83.1606 150° Southeast 274 315 27,200 300 Climbing Atlanta Center
11:06AM 32.5906 -83.1119 146° Southeast 274 315 27,700 360 Climbing Atlanta Center
11:07AM 32.5275 -83.0681 150° Southeast 269 310 28,000 120 Climbing Atlanta Center
11:08AM 32.4603 -83.0222 150° Southeast 264 304 28,000  Level Atlanta Center
11:09AM 32.3994 -82.9736 146° Southeast 269 310 28,000  Level Atlanta Center
11:12AM 32.2458 -82.8631 149° Southeast 284 327 28,000  Level Jacksonville Center
11:13AM 32.1792 -82.8139 148° Southeast 274 315 28,000  Level Jacksonville Center
11:14AM 32.1142 -82.7675 149° Southeast 274 315 28,000  Level Jacksonville Center
11:15AM 32.0517 -82.7186 146° Southeast 274 315 28,000  Level Jacksonville Center
11:16AM 31.9847 -82.6744 151° Southeast 274 315 28,000  Level Jacksonville Center
11:17AM 31.9200 -82.6283 149° Southeast 274 315 28,000  Level Jacksonville Center
11:18AM 31.8531 -82.5794 148° Southeast 274 315 28,000  Level Jacksonville Center
11:19AM 31.7944 -82.5356 148° Southeast 274 315 28,000  Level Jacksonville Center
11:20AM 31.7294 -82.4872 148° Southeast 274 315 28,000  Level Jacksonville Center
11:21AM 31.6606 -82.4433 152° Southeast 274 315 28,000  Level Jacksonville Center
11:22AM 31.5978 -82.3975 148° Southeast 274 315 28,000  Level Jacksonville Center
11:23AM 31.5328 -82.3489 147° Southeast 274 315 28,000  Level Jacksonville Center
11:24AM 31.4575 -82.3081 155° Southeast 274 315 28,000  Level Jacksonville Center
11:25AM 31.3944 -82.2572 145° Southeast 269 310 28,000  Level Jacksonville Center
11:26AM 31.3317 -82.2139 149° Southeast 269 310 28,000  Level Jacksonville Center
11:27AM 31.2667 -82.1658 148° Southeast 269 310 28,000  Level Jacksonville Center
11:28AM 31.2017 -82.1203 149° Southeast 274 315 28,000  Level Jacksonville Center
11:29AM 31.1344 -82.0747 150° Southeast 274 315 28,000  Level Jacksonville Center
11:30AM 31.0694 -82.0267 148° Southeast 274 315 28,000  Level Jacksonville Center
11:31AM 31.0044 -81.9836 150° Southeast 274 315 28,000  Level Jacksonville Center
11:33AM 30.8703 -81.8881 149° Southeast 274 315 28,000  Level Jacksonville Center
11:34AM 30.8072 -81.8428 148° Southeast 274 315 28,000  Level Jacksonville Center
11:35AM 30.7378 -81.7978 151° Southeast 274 315 28,000  Level Jacksonville Center
11:36AM 30.6811 -81.7547 147° Southeast 274 315 28,000  Level Jacksonville Center
11:37AM 30.6139 -81.7075 149° Southeast 274 315 28,000  Level Jacksonville Center
11:38AM 30.5467 -81.6600 149° Southeast 274 315 28,000  Level Jacksonville Center
11:39AM 30.4794 -81.6150 150° Southeast 274 315 28,000  Level Jacksonville Center
11:40AM 30.4142 -81.5678 148° Southeast 274 315 28,000  Level Jacksonville Center
11:41AM 30.3469 -81.5231 150° Southeast 274 315 28,000  Level Jacksonville Center
11:42AM 30.2733 -81.4903 159° South 274 315 28,000  Level Jacksonville Center
11:43AM 30.2042 -81.4578 158° South 269 310 28,000  Level Jacksonville Center
11:44AM 30.1328 -81.4253 159° South 274 315 28,000  Level Jacksonville Center
11:45AM 30.0636 -81.3925 158° South 274 315 28,000  Level Jacksonville Center
11:46AM 29.9922 -81.3625 160° South 274 315 28,000  Level Jacksonville Center
11:47AM 29.9228 -81.3300 158° South 274 315 28,000  Level Jacksonville Center
11:48AM 29.8514 -81.2978 159° South 274 315 28,000  Level Jacksonville Center
11:49AM 29.7822 -81.2628 156° South 274 315 28,000  Level Jacksonville Center
11:50AM 29.7086 -81.2306 159° South 274 315 28,000  Level Jacksonville Center
11:51AM 29.6394 -81.2008 160° South 274 315 28,000  Level Jacksonville Center
11:52AM 29.5700 -81.1661 156° South 274 315 28,000 -180 Level Jacksonville Center
11:53AM 29.4967 -81.1389 162° South 274 315 27,700 -480 Descending Jacksonville Center
11:54AM 29.4250 -81.0997 155° Southeast 274 315 27,100 -720 Descending Jacksonville Center
11:55AM 29.3453 -81.0678 161° South 285 328 26,300 -960 Descending Jacksonville Center
11:56AM 29.2675 -81.0286 156° South 298 343 25,200 -1,080 Descending Jacksonville Center
11:58AM 29.0783 -80.9431 158° South 309 356 22,800 -960 Descending Miami Center
11:59AM 28.9989 -80.9075 159° South 308 354 22,100 -420 Descending Miami Center
12:00PM 28.9258 -80.8728 157° South 286 329 22,000 -60 Descending Miami Center
12:01PM 28.8469 -80.8375 159° South 272 313 22,000  Level Miami Center
12:02PM 28.7742 -80.8039 158° South 271 312 22,000 -180 Level Miami Center
12:03PM 28.7019 -80.7725 159° South 268 308 21,700 -540 Descending Miami Center
12:05PM 28.6253 -80.7381 158° South 280 322 20,900 -840 Descending Miami Center
12:06PM 28.5469 -80.7017 158° South 286 329 20,000 -900 Descending Miami Center
12:07PM 28.4683 -80.6672 159° South 289 333 19,100 -840 Descending Miami Center
12:08PM 28.3900 -80.6336 159° South 289 333 18,300 -780 Descending Miami Center
12:09PM 28.3150 -80.6008 159° South 288 331 17,500 -780 Descending Miami Center
12:10PM 28.2394 -80.5664 158° South 288 331 16,700 -840 Descending Miami Center
12:11PM 28.1622 -80.5328 159° South 290 334 15,800 -900 Descending Miami Center
12:12PM 28.0861 -80.4972 158° South 291 335 14,900 -960 Descending Miami Center
12:13PM 28.0100 -80.4633 159° South 291 335 13,900 -960 Descending Miami Center
12:14PM 27.9353 -80.4308 159° South 290 334 12,900 -1,080 Descending Miami Center
12:15PM 27.8489 -80.3939 159° South 282 325 11,700 -1,200 Descending Miami Center
12:16PM 27.7761 -80.3600 158° South 274 315 10,500 -1,200 Descending Miami Center
12:17PM 27.7047 -80.3283 159° South 264 304 9,300 -1,080 Descending Miami Center
12:18PM 27.6386 -80.3000 159° South 263 303 8,300 -1,020 Descending Miami Center
12:19PM 27.5694 -80.2694 159° South 259 298 7,200 -960 Descending Miami Center
12:20PM 27.5014 -80.2397 159° South 253 291 6,400 -720 Descending Miami Center
12:21PM 27.4344 -80.2100 158° South 248 285 5,700 -720 Descending Miami Center
12:22PM 27.3703 -80.1822 159° South 239 275 4,900 -840 Descending Miami Center
12:23PM 27.3078 -80.1786 177° South 216 249 4,000 -1,140 Descending Miami Center
12:24PM 27.2558 -80.1981 198° South 196 226 2,600 -1,200 Descending Miami Center
12:25PM 27.2314 -80.2344 233° Southwest 141 162 1,500 -840 Descending Miami Center
12:26PM 27.2044 -80.2544 213° Southwest 124 143 900 -480 Descending Miami Center
12:27PM 27.1783 -80.2500 171° South 107 123 600 -300 Descending Miami Center
12:29PM 27.1667 -80.2167 90° East  Level FlightAware Approximate
12:36PM 27.1817 -80.2213 90° East  Level Estimated